Time;durP1;ratioP1;P1;durP2;ratioP2;P2;SDS_P1;SDS_P2;PMS_P1;PMS_P2;Temp;Humidity;BMP_temperature;BMP_pressure;BME280_temperature;BME280_humidity;BME280_pressure;Samples;Min_cycle;Max_cycle;Signal;HPM_P1;HPM_P2
2022/10/18 00:00:18;;;;;;;;;;;15.20;99.90;;;;;;4935816;29;19917;-70
2022/10/18 00:02:43;;;;;;;;;;;15.20;99.90;;;;;;4935729;29;20018;-70
2022/10/18 00:05:09;;;;;;;;;;;15.20;99.90;;;;;;4935652;29;19915;-67
2022/10/18 00:07:34;;;;;;;;;;;15.20;99.90;;;;;;4935737;29;19961;-70
2022/10/18 00:10:00;;;;;;;;;;;15.20;99.90;;;;;;5018158;28;20005;-70
2022/10/18 00:12:25;;;;;;;;;;;15.20;99.90;;;;;;4935586;29;19915;-70
2022/10/18 00:14:51;;;;;;;;;;;15.30;99.90;;;;;;4935555;29;19911;-70
2022/10/18 00:17:16;;;;;;;;;;;15.30;99.90;;;;;;5034636;28;20361;-67
2022/10/18 00:19:42;;;;;;;;;;;15.20;99.90;;;;;;4935560;29;19911;-70
2022/10/18 00:22:07;;;;;;;;;;;15.30;99.90;;;;;;4935478;29;20340;-70
2022/10/18 00:24:32;;;;;;;;;;;15.30;99.90;;;;;;4935439;29;19911;-70
2022/10/18 00:26:58;;;;;;;;;;;15.30;99.90;;;;;;4935201;29;20380;-70
2022/10/18 00:29:23;;;;;;;;;;;15.20;99.90;;;;;;4935360;29;19911;-69
2022/10/18 00:31:49;;;;;;;;;;;15.20;99.90;;;;;;5017650;28;20072;-70
2022/10/18 00:34:15;;;;;;;;;;;15.20;99.90;;;;;;4935293;29;19911;-70
2022/10/18 00:36:41;;;;;;;;;;;15.20;99.90;;;;;;4935271;29;19911;-70
2022/10/18 00:39:08;;;;;;;;;;;15.20;99.90;;;;;;4935226;29;20376;-71
2022/10/18 00:41:34;;;;;;;;;;;15.20;99.90;;;;;;5033881;28;19911;-70
2022/10/18 00:46:48;;;;;;;;;;;15.20;99.90;;;;;;5144893;27;20400;-68
2022/10/18 00:49:16;;;;;;;;;;;15.20;99.90;;;;;;5111605;28;19912;-68
2022/10/18 00:51:43;;;;;;;;;;;15.20;99.90;;;;;;5111489;28;19915;-68
2022/10/18 00:54:10;;;;;;;;;;;15.20;99.90;;;;;;5111495;28;19908;-68
2022/10/18 00:56:35;;;;;;;;;;;15.20;99.90;;;;;;5111462;28;20381;-68
2022/10/18 00:59:01;;;;;;;;;;;15.20;99.90;;;;;;5111373;28;19915;-68
2022/10/18 01:01:26;;;;;;;;;;;15.20;99.90;;;;;;5110131;28;20002;-68
2022/10/18 01:03:52;;;;;;;;;;;15.20;99.90;;;;;;5111278;28;19908;-68
2022/10/18 01:06:18;;;;;;;;;;;15.30;99.90;;;;;;5111167;28;19912;-68
2022/10/18 01:08:49;;;;;;;;;;;15.30;99.90;;;;;;5111234;28;20305;-68
2022/10/18 01:11:34;;;;;;;;;;;15.30;99.90;;;;;;5111166;28;20048;-68
2022/10/18 01:14:17;;;;;;;;;;;15.30;99.90;;;;;;5110957;28;19961;-68
2022/10/18 01:16:59;;;;;;;;;;;15.30;99.90;;;;;;5111099;28;19973;-68
2022/10/18 01:19:37;;;;;;;;;;;15.30;99.90;;;;;;5111008;28;20297;-68
2022/10/18 01:22:14;;;;;;;;;;;15.20;99.90;;;;;;5110959;28;19915;-68
2022/10/18 01:24:59;;;;;;;;;;;15.20;99.90;;;;;;5110953;28;19923;-68
2022/10/18 01:27:32;;;;;;;;;;;15.20;99.90;;;;;;5110786;28;19915;-68
2022/10/18 01:30:17;;;;;;;;;;;15.20;99.90;;;;;;5110818;28;20426;-68
2022/10/18 01:32:45;;;;;;;;;;;15.20;99.90;;;;;;5109346;28;19939;-68
2022/10/18 01:35:13;;;;;;;;;;;15.20;99.90;;;;;;5110704;28;19954;-68
2022/10/18 01:37:40;;;;;;;;;;;15.20;99.90;;;;;;5109502;28;20327;-68
2022/10/18 01:40:07;;;;;;;;;;;15.10;99.90;;;;;;5110603;28;19912;-68
2022/10/18 01:42:33;;;;;;;;;;;15.20;99.90;;;;;;5110550;28;19908;-69
2022/10/18 01:45:00;;;;;;;;;;;15.10;99.90;;;;;;5110313;28;20422;-68
2022/10/18 01:47:26;;;;;;;;;;;15.10;99.90;;;;;;5110507;28;19956;-68
2022/10/18 01:50:01;;;;;;;;;;;15.10;99.90;;;;;;5110423;28;19909;-68
2022/10/18 01:52:26;;;;;;;;;;;15.10;99.90;;;;;;5110405;28;20344;-68
2022/10/18 01:54:52;;;;;;;;;;;15.10;99.90;;;;;;5110306;28;19940;-68
2022/10/18 01:57:23;;;;;;;;;;;15.20;99.90;;;;;;5100270;28;20271;-69
2022/10/18 01:59:53;;;;;;;;;;;15.10;99.90;;;;;;5096692;28;19915;-68
2022/10/18 02:02:39;;;;;;;;;;;15.10;99.90;;;;;;5096607;28;19995;-68
2022/10/18 02:07:47;;;;;;;;;;;15.10;99.90;;;;;;5144963;27;20281;-67
2022/10/18 02:10:17;;;;;;;;;;;15.10;99.90;;;;;;5111609;28;19918;-67
2022/10/18 02:12:43;;;;;;;;;;;15.10;99.90;;;;;;5111500;28;20437;-67
2022/10/18 02:15:12;;;;;;;;;;;15.00;99.90;;;;;;5111444;28;19915;-67
2022/10/18 02:17:38;;;;;;;;;;;15.00;99.90;;;;;;5111428;28;20389;-67
2022/10/18 02:20:05;;;;;;;;;;;15.00;99.90;;;;;;5110484;28;19930;-67
2022/10/18 02:22:31;;;;;;;;;;;15.10;99.90;;;;;;5111321;28;19908;-67
2022/10/18 02:24:58;;;;;;;;;;;15.10;99.90;;;;;;5111262;28;20011;-68
2022/10/18 02:27:24;;;;;;;;;;;15.10;99.90;;;;;;5111139;28;20002;-68
2022/10/18 02:29:50;;;;;;;;;;;15.10;99.90;;;;;;5111187;28;20040;-67
2022/10/18 02:32:20;;;;;;;;;;;15.00;99.90;;;;;;5111150;28;19912;-67
2022/10/18 02:34:51;;;;;;;;;;;15.10;99.90;;;;;;5109810;28;19912;-68
2022/10/18 02:37:17;;;;;;;;;;;15.10;99.90;;;;;;5110185;28;20380;-68
2022/10/18 02:39:45;;;;;;;;;;;15.10;99.90;;;;;;5111297;28;19912;-67
2022/10/18 02:42:10;;;;;;;;;;;15.00;99.90;;;;;;5110946;28;19915;-67
2022/10/18 02:44:37;;;;;;;;;;;15.00;99.90;;;;;;5110903;28;19908;-67
2022/10/18 02:47:03;;;;;;;;;;;15.10;99.90;;;;;;5109639;28;19912;-67
2022/10/18 02:49:28;;;;;;;;;;;15.10;99.90;;;;;;5109557;28;19912;-67
2022/10/18 02:51:54;;;;;;;;;;;15.00;99.90;;;;;;5110780;28;19957;-68
2022/10/18 02:54:19;;;;;;;;;;;15.00;99.90;;;;;;5110699;28;20002;-69
2022/10/18 02:56:45;;;;;;;;;;;15.00;99.90;;;;;;5110693;28;20096;-67
2022/10/18 02:59:10;;;;;;;;;;;15.00;99.90;;;;;;5110654;28;19938;-68
2022/10/18 03:01:36;;;;;;;;;;;15.00;99.90;;;;;;5110555;28;19912;-67
2022/10/18 03:04:01;;;;;;;;;;;15.00;99.90;;;;;;5109385;28;19908;-67
2022/10/18 03:06:27;;;;;;;;;;;15.00;99.90;;;;;;5110193;28;19928;-67
2022/10/18 03:08:53;;;;;;;;;;;15.00;99.90;;;;;;5109311;28;20367;-67
2022/10/18 03:11:18;;;;;;;;;;;15.00;99.90;;;;;;5109162;28;19908;-67
2022/10/18 03:13:43;;;;;;;;;;;15.00;99.90;;;;;;5110646;28;20386;-67
2022/10/18 03:16:09;;;;;;;;;;;15.00;99.90;;;;;;5110311;28;19908;-67
2022/10/18 03:18:34;;;;;;;;;;;15.00;99.90;;;;;;5098326;28;19914;-68
2022/10/18 03:21:04;;;;;;;;;;;15.00;99.90;;;;;;5096626;28;19908;-67
2022/10/18 03:23:29;;;;;;;;;;;15.00;99.90;;;;;;5096572;28;19915;-67
2022/10/18 03:25:55;;;;;;;;;;;14.90;99.90;;;;;;5095301;28;19931;-67
2022/10/18 03:28:20;;;;;;;;;;;15.00;99.90;;;;;;5096550;28;19915;-67
2022/10/18 03:30:46;;;;;;;;;;;15.00;99.90;;;;;;5095338;28;20314;-68
2022/10/18 03:33:11;;;;;;;;;;;14.90;99.90;;;;;;5096433;28;19908;-68
2022/10/18 03:35:37;;;;;;;;;;;14.90;99.90;;;;;;5078219;28;19908;-68
2022/10/18 03:38:02;;;;;;;;;;;14.90;99.90;;;;;;5096312;28;19908;-67
2022/10/18 03:40:28;;;;;;;;;;;14.90;99.90;;;;;;5095014;28;19908;-68
2022/10/18 03:42:53;;;;;;;;;;;14.90;99.90;;;;;;5096229;28;19915;-68
2022/10/18 03:45:18;;;;;;;;;;;14.90;99.90;;;;;;5095190;28;19916;-67
2022/10/18 03:47:44;;;;;;;;;;;14.90;99.90;;;;;;5094928;28;19939;-67
2022/10/18 03:50:09;;;;;;;;;;;14.80;99.90;;;;;;5096113;28;19908;-67
2022/10/18 03:52:35;;;;;;;;;;;14.90;99.90;;;;;;5096174;28;20365;-68
2022/10/18 03:55:00;;;;;;;;;;;14.80;99.90;;;;;;5094741;28;19915;-67
2022/10/18 03:57:26;;;;;;;;;;;14.80;99.90;;;;;;5095936;28;19908;-67
2022/10/18 03:59:51;;;;;;;;;;;14.90;99.90;;;;;;5095919;28;19908;-67
2022/10/18 04:02:17;;;;;;;;;;;14.80;99.90;;;;;;5095851;28;20311;-68
2022/10/18 04:04:42;;;;;;;;;;;14.80;99.90;;;;;;5094729;28;19966;-67
2022/10/18 04:07:08;;;;;;;;;;;14.80;99.90;;;;;;5095746;28;19927;-67
2022/10/18 04:09:33;;;;;;;;;;;14.80;99.90;;;;;;5094405;28;19908;-68
2022/10/18 04:11:58;;;;;;;;;;;14.90;99.90;;;;;;5095659;28;20010;-67
2022/10/18 04:14:24;;;;;;;;;;;14.90;99.90;;;;;;5095595;28;19909;-67
2022/10/18 04:16:49;;;;;;;;;;;14.90;99.90;;;;;;5095557;28;19908;-67
2022/10/18 04:19:15;;;;;;;;;;;14.90;99.90;;;;;;5094388;28;19912;-67
2022/10/18 04:21:40;;;;;;;;;;;14.90;99.90;;;;;;5094200;28;19908;-67
2022/10/18 04:24:06;;;;;;;;;;;14.90;99.90;;;;;;5095360;28;19912;-67
2022/10/18 04:26:31;;;;;;;;;;;14.90;99.90;;;;;;5095215;28;19912;-68
2022/10/18 04:28:57;;;;;;;;;;;14.90;99.90;;;;;;5094484;28;19908;-67
2022/10/18 04:31:22;;;;;;;;;;;14.90;99.90;;;;;;5094951;28;19966;-67
2022/10/18 04:33:48;;;;;;;;;;;14.90;99.90;;;;;;5095209;28;19999;-67
2022/10/18 04:36:13;;;;;;;;;;;14.90;99.90;;;;;;5095120;28;19944;-67
2022/10/18 04:38:39;;;;;;;;;;;14.90;99.90;;;;;;5095118;28;19908;-67
2022/10/18 04:41:04;;;;;;;;;;;15.00;99.90;;;;;;5095084;28;19908;-68
2022/10/18 04:43:30;;;;;;;;;;;14.90;99.90;;;;;;5095219;28;19913;-67
2022/10/18 04:45:55;;;;;;;;;;;14.90;99.90;;;;;;5094959;28;19969;-67
2022/10/18 04:48:20;;;;;;;;;;;15.00;99.90;;;;;;5093810;28;19944;-67
2022/10/18 04:50:47;;;;;;;;;;;15.00;99.90;;;;;;5095125;28;19908;-67
2022/10/18 04:53:13;;;;;;;;;;;15.00;99.90;;;;;;5094857;28;19908;-67
2022/10/18 04:55:38;;;;;;;;;;;15.00;99.90;;;;;;5094792;28;20299;-67
2022/10/18 04:58:04;;;;;;;;;;;15.00;99.90;;;;;;5094699;28;20321;-67
2022/10/18 05:00:29;;;;;;;;;;;15.00;99.90;;;;;;5094702;28;19915;-68
2022/10/18 05:02:56;;;;;;;;;;;15.00;99.90;;;;;;5094674;28;19941;-68
2022/10/18 05:05:22;;;;;;;;;;;14.90;99.90;;;;;;5094376;28;19916;-67
2022/10/18 05:07:47;;;;;;;;;;;14.90;99.90;;;;;;5094704;28;19908;-67
2022/10/18 05:10:13;;;;;;;;;;;15.00;99.90;;;;;;5094564;28;20266;-67
2022/10/18 05:12:38;;;;;;;;;;;14.90;99.90;;;;;;5094481;28;19930;-67
2022/10/18 05:15:04;;;;;;;;;;;15.00;99.90;;;;;;5093202;28;19908;-67
2022/10/18 05:17:29;;;;;;;;;;;15.00;99.90;;;;;;5094416;28;19916;-67
2022/10/18 05:19:55;;;;;;;;;;;14.90;99.90;;;;;;5093150;28;20415;-68
2022/10/18 05:22:20;;;;;;;;;;;15.00;99.90;;;;;;5094263;28;19908;-67
2022/10/18 05:24:46;;;;;;;;;;;14.90;99.90;;;;;;5094361;28;19919;-67
2022/10/18 05:27:11;;;;;;;;;;;14.90;99.90;;;;;;5094186;28;19935;-68
2022/10/18 05:29:37;;;;;;;;;;;14.90;99.90;;;;;;5092963;28;19955;-67
2022/10/18 05:32:02;;;;;;;;;;;14.90;99.90;;;;;;5094188;28;20388;-67
2022/10/18 05:34:30;;;;;;;;;;;14.90;99.90;;;;;;5094096;28;19991;-67
2022/10/18 05:36:56;;;;;;;;;;;14.90;99.90;;;;;;5094048;28;19989;-68
2022/10/18 05:39:22;;;;;;;;;;;14.90;99.90;;;;;;5092745;28;19908;-68
2022/10/18 05:41:47;;;;;;;;;;;14.90;99.90;;;;;;5092861;28;19908;-67
2022/10/18 05:44:13;;;;;;;;;;;14.90;99.90;;;;;;5093914;28;20388;-67
2022/10/18 05:46:38;;;;;;;;;;;14.90;99.90;;;;;;5092475;28;19961;-67
2022/10/18 05:49:04;;;;;;;;;;;14.90;99.90;;;;;;5093940;28;20365;-67
2022/10/18 05:51:29;;;;;;;;;;;14.90;99.90;;;;;;5093874;28;19908;-67
2022/10/18 05:53:55;;;;;;;;;;;14.90;99.90;;;;;;5093676;28;19908;-67
2022/10/18 05:56:20;;;;;;;;;;;14.90;99.90;;;;;;5093802;28;19909;-67
2022/10/18 05:58:48;;;;;;;;;;;14.90;99.90;;;;;;5093775;28;19920;-67
2022/10/18 06:01:14;;;;;;;;;;;14.90;99.90;;;;;;5093787;28;19908;-67
2022/10/18 06:03:39;;;;;;;;;;;14.90;99.90;;;;;;5084214;28;20626;-67
2022/10/18 06:06:06;;;;;;;;;;;14.90;99.90;;;;;;5083445;28;19985;-67
2022/10/18 06:08:32;;;;;;;;;;;14.90;99.90;;;;;;5083356;28;19999;-68
2022/10/18 06:10:58;;;;;;;;;;;14.90;99.90;;;;;;5087191;28;20007;-68
2022/10/18 06:13:23;;;;;;;;;;;14.90;99.90;;;;;;5087187;28;19920;-68
2022/10/18 06:15:49;;;;;;;;;;;14.90;99.90;;;;;;5092405;28;20480;-68
2022/10/18 06:18:14;;;;;;;;;;;14.90;99.90;;;;;;5092239;28;19908;-67
2022/10/18 06:20:40;;;;;;;;;;;15.00;99.90;;;;;;5087337;28;20422;-67
2022/10/18 06:23:05;;;;;;;;;;;15.00;99.90;;;;;;5088517;28;19955;-68
2022/10/18 06:25:30;;;;;;;;;;;15.00;99.90;;;;;;5120501;28;21131;-67
2022/10/18 06:27:56;;;;;;;;;;;15.00;99.90;;;;;;5079881;28;19953;-68
2022/10/18 06:30:21;;;;;;;;;;;15.00;99.90;;;;;;5086554;28;20007;-68
2022/10/18 06:32:47;;;;;;;;;;;15.00;99.90;;;;;;5093366;28;19908;-68
2022/10/18 06:35:12;;;;;;;;;;;15.00;99.90;;;;;;5093345;28;19908;-68
2022/10/18 06:37:38;;;;;;;;;;;15.00;99.90;;;;;;5093264;28;20352;-68
2022/10/18 06:40:04;;;;;;;;;;;15.10;99.90;;;;;;5086352;28;20292;-68
2022/10/18 06:42:30;;;;;;;;;;;15.10;99.90;;;;;;5105714;28;19909;-67
2022/10/18 06:44:56;;;;;;;;;;;15.10;99.90;;;;;;5083573;28;19912;-68
2022/10/18 06:47:21;;;;;;;;;;;15.20;99.90;;;;;;5093098;28;19912;-68
2022/10/18 06:49:47;;;;;;;;;;;15.20;99.90;;;;;;5085323;28;19912;-68
2022/10/18 06:52:12;;;;;;;;;;;15.20;99.90;;;;;;5093182;28;19952;-68
2022/10/18 06:54:37;;;;;;;;;;;15.20;99.90;;;;;;5095652;28;19908;-67
2022/10/18 06:57:03;;;;;;;;;;;15.20;99.90;;;;;;5089994;28;19919;-68
2022/10/18 06:59:28;;;;;;;;;;;15.20;99.90;;;;;;5085800;28;19909;-68
2022/10/18 07:01:54;;;;;;;;;;;15.30;99.90;;;;;;5082860;28;19919;-69
2022/10/18 07:04:19;;;;;;;;;;;15.20;99.90;;;;;;5090392;28;19962;-68
2022/10/18 07:06:45;;;;;;;;;;;15.20;99.90;;;;;;5089570;28;20360;-68
2022/10/18 07:09:10;;;;;;;;;;;15.20;99.90;;;;;;5087370;28;19912;-67
2022/10/18 07:11:36;;;;;;;;;;;15.20;99.90;;;;;;5093219;28;19934;-68
2022/10/18 07:14:03;;;;;;;;;;;15.20;99.90;;;;;;5088500;28;19919;-68
2022/10/18 07:16:29;;;;;;;;;;;15.20;99.90;;;;;;5086593;28;19909;-68
2022/10/18 07:18:54;;;;;;;;;;;15.20;99.90;;;;;;5090697;28;19957;-68
2022/10/18 07:21:21;;;;;;;;;;;15.20;99.90;;;;;;5094096;28;19920;-68
2022/10/18 07:23:47;;;;;;;;;;;15.20;99.90;;;;;;5083398;28;19912;-68
2022/10/18 07:26:15;;;;;;;;;;;15.20;99.90;;;;;;5088801;28;19916;-69
2022/10/18 07:28:41;;;;;;;;;;;15.20;99.90;;;;;;5086096;28;19912;-68
2022/10/18 07:31:07;;;;;;;;;;;15.20;99.90;;;;;;5091611;28;19912;-68
2022/10/18 07:33:34;;;;;;;;;;;15.20;99.90;;;;;;5096308;28;19912;-69
2022/10/18 07:36:00;;;;;;;;;;;15.20;99.90;;;;;;5081940;28;20383;-68
2022/10/18 07:38:26;;;;;;;;;;;15.20;99.90;;;;;;5083830;28;19920;-68
2022/10/18 07:40:55;;;;;;;;;;;15.20;99.90;;;;;;5089065;28;19912;-68
2022/10/18 07:43:21;;;;;;;;;;;15.20;99.90;;;;;;5077438;28;19971;-67
2022/10/18 07:45:54;;;;;;;;;;;15.20;99.90;;;;;;5078532;28;20366;-68
2022/10/18 07:48:19;;;;;;;;;;;15.20;99.90;;;;;;5082810;28;19912;-69
2022/10/18 07:50:45;;;;;;;;;;;15.20;99.90;;;;;;5091529;28;19999;-69
2022/10/18 07:53:10;;;;;;;;;;;15.20;99.90;;;;;;5077657;28;19915;-68
2022/10/18 07:55:36;;;;;;;;;;;15.30;99.90;;;;;;5093277;28;20405;-68
2022/10/18 07:58:01;;;;;;;;;;;15.30;99.90;;;;;;5094638;28;19908;-68
2022/10/18 08:00:27;;;;;;;;;;;15.30;99.90;;;;;;5087627;28;19973;-68
2022/10/18 08:02:56;;;;;;;;;;;15.40;99.90;;;;;;5078347;28;19951;-68
2022/10/18 08:05:21;;;;;;;;;;;15.40;99.90;;;;;;5083498;28;19916;-68
2022/10/18 08:07:47;;;;;;;;;;;15.50;99.90;;;;;;5090525;28;19919;-68
2022/10/18 08:10:12;;;;;;;;;;;15.50;99.90;;;;;;5088192;28;19912;-69
2022/10/18 08:12:38;;;;;;;;;;;15.50;99.90;;;;;;5095373;28;19938;-69
2022/10/18 08:15:04;;;;;;;;;;;15.50;99.90;;;;;;5095352;28;19955;-69
2022/10/18 08:17:29;;;;;;;;;;;15.50;99.90;;;;;;5095533;28;20296;-69
2022/10/18 08:19:55;;;;;;;;;;;15.50;99.90;;;;;;5073245;28;19991;-68
2022/10/18 08:22:21;;;;;;;;;;;15.50;99.90;;;;;;5090897;28;19909;-69
2022/10/18 08:24:47;;;;;;;;;;;15.50;99.90;;;;;;5092623;28;19968;-69
2022/10/18 08:27:13;;;;;;;;;;;15.50;99.90;;;;;;5122242;27;19915;-69
2022/10/18 08:29:39;;;;;;;;;;;15.60;99.90;;;;;;5095176;28;19908;-68
2022/10/18 08:32:04;;;;;;;;;;;15.60;99.90;;;;;;5073566;28;19908;-69
2022/10/18 08:34:30;;;;;;;;;;;15.70;99.90;;;;;;5086640;28;20062;-69
2022/10/18 08:36:55;;;;;;;;;;;15.70;99.90;;;;;;5088764;28;19968;-69
2022/10/18 08:39:21;;;;;;;;;;;15.80;99.90;;;;;;5088246;28;20297;-69
2022/10/18 08:42:06;;;;;;;;;;;15.80;99.90;;;;;;5093971;28;19916;-69
2022/10/18 08:44:32;;;;;;;;;;;15.90;99.90;;;;;;5085469;28;19909;-70
2022/10/18 08:46:59;;;;;;;;;;;16.00;99.90;;;;;;5094785;28;19919;-69
2022/10/18 08:49:27;;;;;;;;;;;16.00;99.90;;;;;;5094627;28;19908;-69
2022/10/18 08:51:53;;;;;;;;;;;16.00;99.90;;;;;;5092974;28;19912;-69
2022/10/18 08:54:26;;;;;;;;;;;16.00;99.90;;;;;;5094051;28;20003;-69
2022/10/18 08:57:00;;;;;;;;;;;16.10;99.90;;;;;;5094090;28;19919;-70
2022/10/18 08:59:28;;;;;;;;;;;16.00;99.90;;;;;;5091457;28;19912;-69
2022/10/18 09:02:13;;;;;;;;;;;16.00;99.90;;;;;;5082843;28;19909;-69
2022/10/18 09:04:58;;;;;;;;;;;16.00;99.90;;;;;;5088869;28;19912;-69
2022/10/18 09:07:44;;;;;;;;;;;15.90;99.90;;;;;;5093269;28;20018;-69
2022/10/18 09:10:29;;;;;;;;;;;15.90;99.90;;;;;;5093568;28;19943;-69
2022/10/18 09:13:15;;;;;;;;;;;15.90;99.90;;;;;;5092541;28;19920;-70
2022/10/18 09:15:45;;;;;;;;;;;16.00;99.90;;;;;;5081420;28;19908;-70
2022/10/18 09:18:15;;;;;;;;;;;16.10;99.90;;;;;;5107561;28;19915;-70
2022/10/18 09:20:48;;;;;;;;;;;16.40;99.90;;;;;;5123265;27;19908;-70
2022/10/18 09:23:19;;;;;;;;;;;16.60;99.90;;;;;;5093959;28;20401;-70
2022/10/18 09:25:48;;;;;;;;;;;16.80;99.90;;;;;;5094032;28;19915;-70
2022/10/18 09:28:15;;;;;;;;;;;17.00;99.90;;;;;;5094166;28;19976;-70
2022/10/18 09:31:01;;;;;;;;;;;17.00;99.90;;;;;;5086908;28;19968;-70
2022/10/18 09:33:33;;;;;;;;;;;17.10;99.90;;;;;;5093616;28;19916;-70
2022/10/18 09:36:00;;;;;;;;;;;17.00;99.90;;;;;;5084885;28;19909;-70
2022/10/18 09:38:29;;;;;;;;;;;17.10;99.90;;;;;;5073614;28;19908;-70
2022/10/18 09:40:59;;;;;;;;;;;17.20;99.90;;;;;;5074885;28;20289;-70
2022/10/18 09:43:37;;;;;;;;;;;17.40;99.90;;;;;;5094007;28;20289;-70
2022/10/18 09:46:04;;;;;;;;;;;17.70;99.90;;;;;;5088475;28;20357;-70
2022/10/18 09:48:47;;;;;;;;;;;17.80;99.90;;;;;;5106347;28;20328;-70
2022/10/18 09:51:20;;;;;;;;;;;17.80;99.90;;;;;;5119697;27;19935;-70
2022/10/18 09:54:01;;;;;;;;;;;17.80;99.90;;;;;;5093741;28;19999;-71
2022/10/18 09:56:30;;;;;;;;;;;17.80;99.90;;;;;;5090001;28;19923;-70
2022/10/18 09:58:55;;;;;;;;;;;17.80;99.90;;;;;;5093567;28;19914;-70
2022/10/18 10:01:23;;;;;;;;;;;17.80;99.90;;;;;;5091466;28;20006;-70
2022/10/18 10:03:48;;;;;;;;;;;17.80;99.90;;;;;;5111131;27;19912;-70
2022/10/18 10:06:21;;;;;;;;;;;18.10;99.90;;;;;;5093330;28;19927;-70
2022/10/18 10:08:47;;;;;;;;;;;18.40;99.90;;;;;;5093007;28;19939;-71
2022/10/18 10:11:33;;;;;;;;;;;18.60;99.90;;;;;;5093556;28;19914;-70
2022/10/18 10:14:16;;;;;;;;;;;18.80;99.90;;;;;;5093434;28;20270;-70
2022/10/18 10:16:43;;;;;;;;;;;19.00;99.90;;;;;;5092259;28;19928;-70
2022/10/18 10:19:17;;;;;;;;;;;18.80;99.90;;;;;;5084713;28;20385;-70
2022/10/18 10:21:43;;;;;;;;;;;19.00;99.90;;;;;;5085676;28;19908;-70
2022/10/18 10:24:17;;;;;;;;;;;18.70;99.90;;;;;;5087732;28;20041;-70
2022/10/18 10:26:43;;;;;;;;;;;18.60;99.90;;;;;;5087378;28;19916;-70
2022/10/18 10:29:28;;;;;;;;;;;18.50;99.90;;;;;;5095525;28;19915;-70
2022/10/18 10:32:02;;;;;;;;;;;18.30;99.90;;;;;;5096579;28;20342;-70
2022/10/18 10:34:28;;;;;;;;;;;18.20;99.90;;;;;;5096751;28;20364;-70
2022/10/18 10:36:54;;;;;;;;;;;18.20;99.90;;;;;;5096933;28;19913;-70
2022/10/18 10:39:20;;;;;;;;;;;18.30;99.90;;;;;;5097125;28;19914;-70
2022/10/18 10:41:47;;;;;;;;;;;18.10;99.90;;;;;;5097066;28;19908;-70
2022/10/18 10:44:14;;;;;;;;;;;17.90;99.90;;;;;;5095715;28;19912;-71
2022/10/18 10:46:40;;;;;;;;;;;17.90;99.90;;;;;;5097000;28;20049;-70
2022/10/18 10:49:05;;;;;;;;;;;17.70;99.90;;;;;;5094385;28;19952;-70
2022/10/18 10:51:32;;;;;;;;;;;17.70;99.90;;;;;;5084319;28;19913;-70
2022/10/18 10:53:59;;;;;;;;;;;17.50;99.90;;;;;;5081011;28;19915;-71
2022/10/18 10:56:26;;;;;;;;;;;17.40;99.90;;;;;;5096838;28;19973;-70
2022/10/18 10:58:53;;;;;;;;;;;17.40;99.90;;;;;;5096969;28;19908;-71
2022/10/18 11:01:20;;;;;;;;;;;17.50;99.90;;;;;;5096736;28;19908;-70
2022/10/18 11:03:47;;;;;;;;;;;17.60;99.90;;;;;;5096783;28;20408;-70
2022/10/18 11:06:32;;;;;;;;;;;17.60;99.90;;;;;;5093011;28;19952;-70
2022/10/18 11:09:00;;;;;;;;;;;17.60;99.90;;;;;;5079052;28;19919;-70
2022/10/18 11:11:29;;;;;;;;;;;17.70;99.90;;;;;;5095481;28;20373;-70
2022/10/18 11:13:59;;;;;;;;;;;17.70;99.90;;;;;;5096043;28;19908;-71
2022/10/18 11:16:31;;;;;;;;;;;17.60;99.90;;;;;;5094290;28;19912;-70
2022/10/18 11:18:56;;;;;;;;;;;17.50;99.90;;;;;;5076307;28;19912;-70
2022/10/18 11:21:24;;;;;;;;;;;17.50;99.90;;;;;;5076376;28;19915;-70
2022/10/18 11:23:50;;;;;;;;;;;17.40;99.90;;;;;;5086587;28;19916;-71
2022/10/18 11:26:26;;;;;;;;;;;17.40;99.90;;;;;;5096337;28;19923;-70
2022/10/18 11:29:01;;;;;;;;;;;17.30;99.90;;;;;;5096330;28;19914;-70
2022/10/18 11:31:31;;;;;;;;;;;17.30;99.90;;;;;;5096437;28;19958;-71
2022/10/18 11:34:02;;;;;;;;;;;17.30;99.90;;;;;;5096113;28;19918;-70
2022/10/18 11:36:40;;;;;;;;;;;17.40;99.90;;;;;;5096279;28;19912;-70
2022/10/18 11:39:08;;;;;;;;;;;17.60;99.90;;;;;;5094516;28;20396;-70
2022/10/18 11:41:39;;;;;;;;;;;17.70;99.90;;;;;;5095420;28;19908;-70
2022/10/18 11:44:24;;;;;;;;;;;17.90;99.90;;;;;;5090864;28;19920;-70
2022/10/18 11:47:09;;;;;;;;;;;18.10;99.90;;;;;;5093593;28;19912;-70
2022/10/18 11:49:51;;;;;;;;;;;18.40;99.90;;;;;;5092827;28;19916;-69
2022/10/18 11:52:22;;;;;;;;;;;18.40;99.90;;;;;;5079257;28;19908;-70
2022/10/18 11:54:54;;;;;;;;;;;18.80;99.90;;;;;;5093953;28;19964;-69
2022/10/18 12:03:02;;;;;;;;;;;19.00;99.90;;;;;;5124843;27;19917;-69
2022/10/18 12:05:28;;;;;;;;;;;18.80;99.90;;;;;;5000213;28;19914;-69
2022/10/18 12:08:03;;;;;;;;;;;18.50;99.90;;;;;;4987841;28;19910;-69
2022/10/18 12:10:31;;;;;;;;;;;18.60;99.90;;;;;;4987904;28;19910;-69
2022/10/18 12:13:00;;;;;;;;;;;18.50;99.90;;;;;;4992989;28;19913;-68
2022/10/18 12:15:27;;;;;;;;;;;18.80;99.90;;;;;;5007469;28;19914;-69
2022/10/18 12:17:54;;;;;;;;;;;18.60;99.90;;;;;;5007303;28;20275;-69
2022/10/18 12:20:22;;;;;;;;;;;18.70;99.90;;;;;;5007231;28;19917;-70
2022/10/18 12:22:51;;;;;;;;;;;18.30;99.90;;;;;;5006278;28;19913;-69
2022/10/18 12:25:17;;;;;;;;;;;18.20;99.90;;;;;;5007047;28;20384;-69
2022/10/18 12:27:47;;;;;;;;;;;18.20;99.90;;;;;;5022298;28;19909;-69
2022/10/18 12:30:18;;;;;;;;;;;18.40;99.90;;;;;;5022327;28;20275;-70
2022/10/18 12:32:45;;;;;;;;;;;18.40;99.90;;;;;;5022189;28;19910;-70
2022/10/18 12:35:13;;;;;;;;;;;18.30;99.90;;;;;;5005316;28;19915;-69
2022/10/18 12:37:58;;;;;;;;;;;18.20;99.90;;;;;;5006766;28;19909;-69
2022/10/18 12:40:28;;;;;;;;;;;18.20;99.90;;;;;;5006820;28;19910;-70
2022/10/18 12:42:54;;;;;;;;;;;18.00;99.90;;;;;;5005514;28;19917;-69
2022/10/18 12:45:24;;;;;;;;;;;18.20;99.90;;;;;;5006814;28;20224;-70
2022/10/18 12:47:50;;;;;;;;;;;18.30;99.90;;;;;;5006775;28;20370;-69
2022/10/18 12:50:25;;;;;;;;;;;18.50;99.90;;;;;;5021709;28;20020;-69
2022/10/18 12:53:11;;;;;;;;;;;18.70;99.90;;;;;;5006683;28;20398;-69
2022/10/18 12:55:39;;;;;;;;;;;18.90;99.90;;;;;;4986992;28;19914;-69
2022/10/18 12:58:20;;;;;;;;;;;18.70;99.90;;;;;;5004067;28;19914;-68
2022/10/18 13:00:48;;;;;;;;;;;18.40;99.90;;;;;;5005288;28;21077;-69
2022/10/18 13:13:50;;;;;;;;;;;17.70;99.90;;;;;;5142287;27;19939;-69
2022/10/18 13:16:22;;;;;;;;;;;17.80;99.90;;;;;;5095193;28;20276;-69
2022/10/18 13:18:57;;;;;;;;;;;18.10;99.90;;;;;;5091005;28;20006;-69
2022/10/18 13:21:42;;;;;;;;;;;18.40;99.90;;;;;;5123738;28;19962;-69
2022/10/18 13:24:21;;;;;;;;;;;18.60;99.90;;;;;;5100940;28;20384;-69
2022/10/18 13:27:03;;;;;;;;;;;18.90;99.90;;;;;;5109401;28;19935;-70
2022/10/18 13:29:38;;;;;;;;;;;18.80;99.90;;;;;;5109928;28;19908;-69
2022/10/18 13:32:12;;;;;;;;;;;18.50;99.90;;;;;;5104130;28;20388;-69
2022/10/18 13:34:38;;;;;;;;;;;18.30;99.90;;;;;;5110568;28;20003;-70
2022/10/18 13:37:05;;;;;;;;;;;18.10;99.90;;;;;;5096660;28;20011;-69
2022/10/18 13:39:31;;;;;;;;;;;17.90;99.90;;;;;;5101458;28;19916;-69
2022/10/18 13:41:59;;;;;;;;;;;17.80;99.90;;;;;;5098777;28;19916;-70
2022/10/18 13:44:27;;;;;;;;;;;17.70;99.90;;;;;;5098877;28;19912;-70
2022/10/18 13:46:55;;;;;;;;;;;17.70;99.90;;;;;;5108633;28;19919;-70
2022/10/18 13:49:29;;;;;;;;;;;17.60;99.90;;;;;;5109458;28;19915;-69
2022/10/18 13:52:15;;;;;;;;;;;17.60;99.90;;;;;;5100154;28;19912;-70
2022/10/18 13:55:00;;;;;;;;;;;17.40;99.90;;;;;;5093415;28;20320;-69
2022/10/18 13:57:35;;;;;;;;;;;17.40;99.90;;;;;;5099708;28;19965;-69
2022/10/18 14:00:20;;;;;;;;;;;17.60;99.90;;;;;;5109154;28;19955;-69
2022/10/18 14:02:52;;;;;;;;;;;17.90;99.90;;;;;;5096009;28;19913;-69
2022/10/18 14:05:22;;;;;;;;;;;18.20;99.90;;;;;;5108124;28;19915;-70
2022/10/18 14:07:49;;;;;;;;;;;18.40;99.90;;;;;;5097166;28;19965;-70
2022/10/18 14:10:24;;;;;;;;;;;18.50;99.90;;;;;;5108930;28;19977;-69
2022/10/18 14:12:53;;;;;;;;;;;18.60;99.90;;;;;;5109743;28;19959;-69
2022/10/18 14:15:23;;;;;;;;;;;18.60;99.90;;;;;;5109264;28;20426;-70
2022/10/18 14:17:51;;;;;;;;;;;18.70;99.90;;;;;;5105127;28;19912;-70
2022/10/18 14:20:26;;;;;;;;;;;18.70;99.90;;;;;;5090902;28;19956;-70
2022/10/18 14:23:11;;;;;;;;;;;18.70;99.90;;;;;;5130617;27;19951;-70
2022/10/18 14:25:37;;;;;;;;;;;18.70;99.90;;;;;;5096283;28;19955;-70
2022/10/18 14:28:12;;;;;;;;;;;18.70;99.90;;;;;;5092728;28;19912;-70
2022/10/18 14:30:51;;;;;;;;;;;18.60;99.90;;;;;;5094298;28;19960;-70
2022/10/18 14:33:36;;;;;;;;;;;18.60;99.90;;;;;;5094466;28;20061;-70
2022/10/18 14:36:04;;;;;;;;;;;18.60;99.90;;;;;;5094222;28;19915;-70
2022/10/18 14:38:30;;;;;;;;;;;18.60;99.90;;;;;;5094447;28;19908;-70
2022/10/18 14:41:04;;;;;;;;;;;18.60;99.90;;;;;;5094890;28;19991;-70
2022/10/18 14:43:29;;;;;;;;;;;18.70;99.90;;;;;;5093926;28;19908;-70
2022/10/18 14:46:06;;;;;;;;;;;18.60;99.90;;;;;;5096286;28;19908;-70